createdAt,value
2018-11-12T00:02:48.010Z,100254.07
2018-11-12T00:07:54.368Z,100264.14
2018-11-12T00:12:58.512Z,100268.55
2018-11-12T00:18:02.980Z,100264.05
2018-11-12T00:23:06.962Z,100261.38
2018-11-12T00:28:11.166Z,100256.41
2018-11-12T00:33:15.128Z,100253.00
2018-11-12T00:38:19.524Z,100254.67
2018-11-12T00:43:23.485Z,100250.19
2018-11-12T00:48:28.570Z,100258.83
2018-11-12T00:53:33.083Z,100262.98
2018-11-12T00:58:37.929Z,100273.16
2018-11-12T01:03:42.189Z,100275.16
2018-11-12T01:08:46.394Z,100278.88
2018-11-12T01:13:50.566Z,100284.73
2018-11-12T01:18:54.863Z,100286.30
2018-11-12T01:23:58.840Z,100303.93
2018-11-12T01:29:10.295Z,100296.23
2018-11-12T01:34:15.496Z,100312.09
2018-11-12T01:39:25.720Z,100327.92
2018-11-12T01:44:31.905Z,100323.25
2018-11-12T01:49:37.696Z,100326.80
2018-11-12T01:54:44.187Z,100329.09
2018-11-12T01:59:48.696Z,100320.05
2018-11-12T02:04:53.201Z,100319.19
2018-11-12T02:09:57.220Z,100329.28
2018-11-12T02:15:03.995Z,100325.95
2018-11-12T02:20:12.504Z,100321.41
2018-11-12T02:25:16.854Z,100323.06
2018-11-12T02:30:26.242Z,100319.64
2018-11-12T02:35:30.057Z,100321.69
2018-11-12T02:40:33.974Z,100315.04
2018-11-12T02:45:38.670Z,100331.98
2018-11-12T02:50:42.498Z,100322.51
2018-11-12T02:55:46.326Z,100321.29
2018-11-12T03:00:50.394Z,100313.36
2018-11-12T03:05:54.278Z,100324.45
2018-11-12T03:10:58.281Z,100330.59
2018-11-12T03:16:02.605Z,100327.56
2018-11-12T03:21:09.265Z,100318.11
2018-11-12T03:26:13.334Z,100314.20
2018-11-12T03:31:23.799Z,100313.31
2018-11-12T03:36:31.265Z,100310.09
2018-11-12T03:41:35.666Z,100306.58
2018-11-12T03:46:39.835Z,100309.42
2018-11-12T03:51:43.989Z,100310.91
2018-11-12T03:56:48.102Z,100317.97
2018-11-12T04:01:52.075Z,100334.77
2018-11-12T04:06:56.405Z,100336.02
2018-11-12T04:12:00.345Z,100338.75
2018-11-12T04:17:04.647Z,100332.63
2018-11-12T04:22:08.505Z,100336.92
2018-11-12T04:27:12.586Z,100332.66
2018-11-12T04:32:16.684Z,100326.72
2018-11-12T04:37:23.317Z,100330.85
2018-11-12T04:42:27.655Z,100326.72
2018-11-12T04:47:31.745Z,100329.25
2018-11-12T04:52:35.703Z,100329.78
2018-11-12T04:57:41.104Z,100338.37
2018-11-12T05:02:45.562Z,100326.43
2018-11-12T05:07:52.929Z,100331.11
2018-11-12T05:12:56.991Z,100332.56
2018-11-12T05:18:01.799Z,100333.77
2018-11-12T05:23:05.844Z,100333.30
2018-11-12T05:28:09.991Z,100340.12
2018-11-12T05:33:14.284Z,100337.88
2018-11-12T05:38:24.392Z,100337.33
2018-11-12T05:43:40.321Z,100341.86
2018-11-12T05:48:59.143Z,100330.95
2018-11-12T05:54:10.396Z,100341.45
2018-11-12T05:59:14.931Z,100328.30
2018-11-12T06:20:44.491Z,100366.48
2018-11-12T06:25:48.454Z,100372.27
2018-11-12T06:30:52.213Z,100367.64
2018-11-12T06:35:56.077Z,100372.50
2018-11-12T06:41:00.066Z,100376.95
2018-11-12T06:46:04.218Z,100373.22
2018-11-12T06:51:07.921Z,100371.27
2018-11-12T06:56:11.859Z,100385.53
2018-11-12T07:01:15.705Z,100389.48
2018-11-12T07:06:19.788Z,100376.70
2018-11-12T07:11:23.820Z,100360.75
2018-11-12T07:16:27.608Z,100371.58
2018-11-12T07:21:31.631Z,100373.88
2018-11-12T07:26:35.515Z,100378.49
2018-11-12T07:42:54.703Z,100363.38
2018-11-12T07:47:58.903Z,100383.25
2018-11-12T07:53:03.310Z,100377.25
2018-11-12T07:58:06.896Z,100363.13
2018-11-12T08:25:15.908Z,100404.74
2018-11-12T08:30:21.488Z,100402.45
2018-11-12T08:35:26.738Z,100402.75
2018-11-12T08:40:31.360Z,100392.61
2018-11-12T08:51:25.723Z,100386.86
2018-11-12T08:56:29.392Z,100388.25
2018-11-12T09:01:33.502Z,100391.49
2018-11-12T09:06:37.737Z,100385.28
2018-11-12T09:11:41.506Z,100384.71
2018-11-12T09:16:44.834Z,100375.17
2018-11-12T09:21:48.250Z,100390.42
2018-11-12T09:26:51.614Z,100372.78
2018-11-12T09:31:55.140Z,100360.53
2018-11-12T09:36:59.862Z,100367.37
2018-11-12T09:42:04.012Z,100360.41
2018-11-12T09:47:07.730Z,100360.31
2018-11-12T09:52:11.454Z,100348.09
2018-11-12T09:57:14.864Z,100364.00
2018-11-12T10:02:19.109Z,100356.59
2018-11-12T10:07:23.262Z,100336.02
2018-11-12T10:12:27.311Z,100330.47
2018-11-12T10:17:31.556Z,100327.61
2018-11-12T10:22:32.127Z,100334.96
2018-11-12T10:27:35.417Z,100334.20
2018-11-12T10:32:38.909Z,100332.37
2018-11-12T10:37:42.759Z,100329.42
2018-11-12T10:42:46.418Z,100325.50
2018-11-12T10:47:50.853Z,100326.70
2018-11-12T10:52:54.176Z,100328.51
2018-11-12T10:57:57.658Z,100312.44
2018-11-12T11:03:08.454Z,100308.80
2018-11-12T11:08:11.991Z,100306.84
2018-11-12T11:13:16.732Z,100301.81
2018-11-12T11:18:21.116Z,100289.20
2018-11-12T11:23:25.914Z,100282.30
2018-11-12T11:28:31.369Z,100271.68
2018-11-12T11:33:42.128Z,100271.03
2018-11-12T11:38:46.131Z,100270.66
2018-11-12T11:43:51.535Z,100260.31
2018-11-12T11:48:55.399Z,100263.53
2018-11-12T11:54:01.923Z,100257.63
2018-11-12T11:59:06.748Z,100247.98
2018-11-12T12:04:12.999Z,100249.42
2018-11-12T12:09:19.627Z,100247.66
2018-11-12T12:14:25.219Z,100241.50
2018-11-12T12:19:30.928Z,100243.36
2018-11-12T12:24:38.832Z,100238.57
2018-11-12T12:29:46.676Z,100248.45
2018-11-12T12:34:53.947Z,100241.13
2018-11-12T12:39:57.647Z,100237.01
2018-11-12T12:45:01.463Z,100244.73
2018-11-12T12:50:06.067Z,100239.22
2018-11-12T12:55:13.304Z,100247.31
2018-11-12T13:00:22.348Z,100254.84
2018-11-12T13:05:28.282Z,100248.16
2018-11-12T13:10:34.586Z,100239.69
2018-11-12T13:15:42.443Z,100239.38
2018-11-12T13:20:50.547Z,100241.98
2018-11-12T13:25:55.749Z,100238.30
2018-11-12T13:31:00.144Z,100239.95
2018-11-12T13:36:05.799Z,100245.05
2018-11-12T13:41:10.050Z,100249.59
2018-11-12T13:46:13.526Z,100250.79
2018-11-12T13:51:17.422Z,100254.52
2018-11-12T13:56:20.756Z,100263.75
2018-11-12T14:01:24.539Z,100254.72
2018-11-12T14:06:29.217Z,100259.19
2018-11-12T14:11:32.585Z,100267.91
2018-11-12T14:16:36.113Z,100267.06
2018-11-12T14:21:39.919Z,100267.73
2018-11-12T14:26:43.024Z,100270.47
2018-11-12T14:31:46.399Z,100280.64
2018-11-12T14:36:49.719Z,100285.38
2018-11-12T14:41:53.130Z,100285.48
2018-11-12T14:46:56.415Z,100299.11
2018-11-12T14:51:59.702Z,100295.52
2018-11-12T14:57:03.036Z,100305.47
2018-11-12T15:02:06.409Z,100304.62
2018-11-12T15:07:09.726Z,100316.83
2018-11-12T15:12:13.368Z,100318.03
2018-11-12T15:17:16.842Z,100315.48
2018-11-12T15:22:21.955Z,100314.71
2018-11-12T15:27:25.835Z,100339.31
2018-11-12T15:32:29.468Z,100339.17
2018-11-12T15:37:34.581Z,100343.14
2018-11-12T15:48:39.863Z,100345.11
2018-11-12T16:10:51.473Z,100363.22
2018-11-12T16:16:16.175Z,100358.09
2018-11-12T16:21:21.234Z,100346.36
2018-11-12T16:26:25.136Z,100357.14
2018-11-12T16:31:29.238Z,100361.34
2018-11-12T16:36:33.057Z,100359.30
2018-11-12T16:41:36.831Z,100366.23
2018-11-12T16:46:41.726Z,100384.16
2018-11-12T16:51:45.549Z,100386.41
2018-11-12T16:56:49.152Z,100379.77
2018-11-12T17:01:52.887Z,100381.68
2018-11-12T17:06:56.794Z,100380.05
2018-11-12T17:12:00.243Z,100381.73
2018-11-12T17:17:03.803Z,100388.95
2018-11-12T17:22:07.565Z,100387.62
2018-11-12T17:27:11.616Z,100379.81
2018-11-12T17:32:15.118Z,100389.63
2018-11-12T17:37:18.613Z,100393.78
2018-11-12T17:42:22.489Z,100414.21
2018-11-12T17:47:26.076Z,100420.46
2018-11-12T17:52:29.798Z,100421.31
2018-11-12T17:57:33.255Z,100425.34
2018-11-12T18:02:36.672Z,100427.23
2018-11-12T18:07:40.988Z,100443.58
2018-11-12T18:12:44.328Z,100457.77
2018-11-12T18:17:48.033Z,100448.73
2018-11-12T18:22:52.280Z,100453.17
2018-11-12T18:27:56.494Z,100456.77
2018-11-12T18:33:00.322Z,100457.48
2018-11-12T18:38:04.129Z,100463.48
2018-11-12T18:43:07.929Z,100469.45
2018-11-12T18:48:11.483Z,100474.39
2018-11-12T18:53:15.148Z,100465.03
2018-11-12T18:58:18.796Z,100460.42
2018-11-12T19:03:22.406Z,100460.22
2018-11-12T19:08:26.086Z,100457.55
2018-11-12T19:13:29.777Z,100462.22
2018-11-12T19:18:34.222Z,100467.17
2018-11-12T19:23:38.188Z,100479.06
2018-11-12T19:28:41.599Z,100480.31
2018-11-12T19:33:45.333Z,100489.35
2018-11-12T19:38:48.972Z,100499.90
2018-11-12T19:43:52.714Z,100492.48
2018-11-12T19:48:56.479Z,100494.70
2018-11-12T19:54:00.897Z,100519.92
2018-11-12T19:59:04.878Z,100521.63
2018-11-12T20:04:08.716Z,100519.88
2018-11-12T20:09:12.510Z,100521.07
2018-11-12T20:14:16.159Z,100526.70
2018-11-12T20:19:19.785Z,100534.75
2018-11-12T20:24:23.122Z,100538.24
2018-11-12T20:29:27.074Z,100540.61
2018-11-12T20:34:30.690Z,100535.98
2018-11-12T20:39:34.005Z,100522.31
2018-11-12T20:44:37.392Z,100517.90
2018-11-12T20:49:41.131Z,100516.36
2018-11-12T20:54:44.447Z,100523.82
2018-11-12T20:59:47.867Z,100526.31
2018-11-12T21:04:51.425Z,100538.91
2018-11-12T21:09:54.878Z,100539.42
2018-11-12T21:14:58.257Z,100534.23
2018-11-12T21:20:01.628Z,100528.69
2018-11-12T21:25:05.644Z,100512.47
2018-11-12T21:30:11.405Z,100503.75
2018-11-12T21:35:14.760Z,100503.21
2018-11-12T21:40:19.524Z,100510.32
2018-11-12T21:45:26.414Z,100507.73
2018-11-12T21:50:29.848Z,100509.75
2018-11-12T21:55:33.260Z,100515.35
2018-11-12T22:00:36.689Z,100512.34
2018-11-12T22:05:40.166Z,100498.63
2018-11-12T22:10:43.548Z,100508.65
2018-11-12T22:15:46.957Z,100510.39
2018-11-12T22:20:50.587Z,100512.86
2018-11-12T22:25:53.969Z,100525.54
2018-11-12T22:30:57.402Z,100526.56
2018-11-12T22:36:01.040Z,100532.55
2018-11-12T22:41:04.534Z,100530.23
2018-11-12T22:46:08.077Z,100534.19
2018-11-12T22:51:11.430Z,100532.06
2018-11-12T22:56:14.837Z,100529.52
2018-11-12T23:01:18.219Z,100524.57
2018-11-12T23:06:21.617Z,100541.84
2018-11-12T23:11:24.992Z,100541.68
2018-11-12T23:16:28.428Z,100535.21
2018-11-12T23:21:31.755Z,100539.52
2018-11-12T23:26:35.324Z,100547.14
2018-11-12T23:31:38.832Z,100541.50
2018-11-12T23:36:42.178Z,100544.78
2018-11-12T23:41:45.509Z,100547.14
2018-11-12T23:46:49.000Z,100554.16
2018-11-12T23:51:52.513Z,100559.21
2018-11-12T23:56:56.069Z,100556.55
